createdAt,value
2022-10-05T00:01:41.934Z,101299.25
2022-10-05T00:03:44.026Z,101299.47
2022-10-05T00:05:46.156Z,101298.44
2022-10-05T00:07:48.200Z,101310.53
2022-10-05T00:10:14.044Z,101302.53
2022-10-05T00:12:17.781Z,101300.91
2022-10-05T00:14:36.013Z,101306.22
2022-10-05T00:16:38.056Z,101300.50
2022-10-05T00:18:40.102Z,101293.81
2022-10-05T00:20:42.246Z,101308.19
2022-10-05T00:22:44.234Z,101291.88
2022-10-05T00:24:47.235Z,101293.81
2022-10-05T00:26:54.198Z,101287.16
2022-10-05T00:28:59.752Z,101286.66
2022-10-05T00:31:01.743Z,101289.63
2022-10-05T00:33:03.795Z,101285.53
2022-10-05T00:35:06.562Z,101286.34
2022-10-05T00:37:08.464Z,101289.50
2022-10-05T00:39:10.549Z,101286.75
2022-10-05T00:41:32.074Z,101276.22
2022-10-05T00:44:04.263Z,101276.53
2022-10-05T00:46:29.242Z,101276.72
2022-10-05T00:48:53.780Z,101271.19
2022-10-05T00:51:22.330Z,101273.13
2022-10-05T00:53:49.782Z,101276.44
2022-10-05T00:56:20.005Z,101281.44
2022-10-05T00:59:08.656Z,101275.53
2022-10-05T01:01:24.447Z,101279.41
2022-10-05T01:03:47.953Z,101280.22
2022-10-05T01:06:08.263Z,101285.13
2022-10-05T01:08:25.159Z,101278.47
2022-10-05T01:10:41.580Z,101266.59
2022-10-05T01:13:24.002Z,101258.81
2022-10-05T01:15:45.982Z,101251.84
2022-10-05T01:18:25.339Z,101257.38
2022-10-05T01:21:00.043Z,101249.28
2022-10-05T01:23:52.673Z,101246.50
2022-10-05T01:26:33.950Z,101245.47
2022-10-05T01:28:41.588Z,101247.63
2022-10-05T01:30:55.122Z,101249.69
2022-10-05T01:33:29.188Z,101242.63
2022-10-05T01:36:16.224Z,101240.69
2022-10-05T01:38:31.940Z,101235.16
2022-10-05T01:41:04.251Z,101242.63
2022-10-05T01:43:43.199Z,101234.94
2022-10-05T01:46:06.712Z,101233.50
2022-10-05T01:48:17.464Z,101228.28
2022-10-05T01:50:57.867Z,101226.34
2022-10-05T01:53:32.458Z,101225.22
2022-10-05T01:55:45.353Z,101218.25
2022-10-05T01:58:16.792Z,101208.81
2022-10-05T02:00:19.216Z,101201.84
2022-10-05T02:02:22.380Z,101207.69
2022-10-05T02:06:57.583Z,101211.47
2022-10-05T02:09:42.345Z,101214.22
2022-10-05T02:11:48.670Z,101208.22
2022-10-05T02:13:58.043Z,101213.13
2022-10-05T02:16:14.663Z,101214.56
2022-10-05T02:18:28.715Z,101201.84
2022-10-05T02:20:32.514Z,101202.16
2022-10-05T02:22:46.608Z,101193.22
2022-10-05T02:24:56.389Z,101197.97
2022-10-05T02:26:58.387Z,101193.56
2022-10-05T02:29:03.537Z,101199.59
2022-10-05T02:31:17.724Z,101209.81
2022-10-05T02:33:32.987Z,101217.00
2022-10-05T02:35:35.083Z,101213.75
2022-10-05T02:37:55.977Z,101212.78
2022-10-05T02:40:04.927Z,101218.31
2022-10-05T02:42:50.173Z,101226.00
2022-10-05T02:45:02.004Z,101232.97
2022-10-05T02:47:46.774Z,101227.75
2022-10-05T02:50:00.816Z,101226.31
2022-10-05T02:52:27.265Z,101223.84
2022-10-05T02:54:50.045Z,101225.78
2022-10-05T02:57:05.240Z,101215.06
2022-10-05T02:59:45.543Z,101209.53
2022-10-05T03:01:52.175Z,101214.72
2022-10-05T03:04:36.861Z,101211.97
2022-10-05T03:06:51.186Z,101213.41
2022-10-05T03:09:05.449Z,101208.69
2022-10-05T03:11:43.495Z,101207.69
2022-10-05T03:14:46.644Z,101213.22
2022-10-05T03:16:54.429Z,101213.53
2022-10-05T03:19:37.005Z,101213.22
2022-10-05T03:21:56.177Z,101212.50
2022-10-05T03:24:13.132Z,101196.25
2022-10-05T03:26:42.988Z,101199.72
2022-10-05T03:29:06.715Z,101209.13
2022-10-05T03:31:19.473Z,101205.03
2022-10-05T03:33:45.828Z,101191.91
2022-10-05T03:36:05.472Z,101193.84
2022-10-05T03:38:18.821Z,101193.06
2022-10-05T03:41:04.712Z,101190.91
2022-10-05T03:43:34.406Z,101195.19
2022-10-05T03:45:53.146Z,101194.38
2022-10-05T03:48:31.773Z,101189.84
2022-10-05T03:51:05.842Z,101194.56
2022-10-05T03:53:25.663Z,101189.03
2022-10-05T03:55:47.669Z,101180.84
2022-10-05T03:57:50.343Z,101175.13
2022-10-05T04:00:01.390Z,101183.13
2022-10-05T04:02:10.571Z,101168.97
2022-10-05T04:04:36.578Z,101179.72
2022-10-05T04:06:47.478Z,101169.97
2022-10-05T04:09:26.704Z,101187.69
2022-10-05T04:11:49.067Z,101176.13
2022-10-05T04:14:03.744Z,101172.75
2022-10-05T04:16:18.594Z,101167.22
2022-10-05T04:18:33.952Z,101169.50
2022-10-05T04:20:45.859Z,101164.59
2022-10-05T04:23:44.215Z,101176.75
2022-10-05T04:26:03.074Z,101187.00
2022-10-05T04:28:12.318Z,101167.97
2022-10-05T04:30:19.479Z,101158.31
2022-10-05T04:32:57.411Z,101160.78
2022-10-05T04:35:21.883Z,101147.25
2022-10-05T04:37:51.103Z,101163.34
2022-10-05T04:40:10.207Z,101169.38
2022-10-05T04:42:36.790Z,101169.72
2022-10-05T04:45:14.442Z,101162.88
2022-10-05T12:02:43.896Z,101073.22
2022-10-05T12:05:11.605Z,101072.88
2022-10-05T12:07:54.123Z,101068.28
2022-10-05T12:10:44.851Z,101086.81
2022-10-05T12:13:13.647Z,101077.19
2022-10-05T12:15:48.782Z,101088.03
2022-10-05T12:18:08.370Z,101074.72
2022-10-05T12:20:33.966Z,101078.16
2022-10-05T12:22:42.197Z,101056.06
2022-10-05T12:25:17.978Z,101061.91
2022-10-05T12:27:25.338Z,101051.00
2022-10-05T12:30:09.993Z,101053.88
2022-10-05T12:32:22.568Z,101047.59
2022-10-05T12:34:47.827Z,101050.00
2022-10-05T12:37:39.306Z,101051.09
2022-10-05T12:39:56.186Z,101046.03
2022-10-05T12:42:29.374Z,101064.91
2022-10-05T12:44:51.746Z,101049.13
2022-10-05T12:47:19.337Z,101050.31
2022-10-05T12:49:52.258Z,101031.00
2022-10-05T12:52:37.134Z,101025.41
2022-10-05T12:55:41.998Z,101015.94
2022-10-05T12:58:27.296Z,101014.78
2022-10-05T13:01:46.861Z,101024.78
2022-10-05T13:04:47.073Z,101022.53
2022-10-05T13:07:15.444Z,101020.63
2022-10-05T13:09:50.089Z,101020.72
2022-10-05T13:12:57.129Z,101019.53
2022-10-05T13:16:04.789Z,101009.19
2022-10-05T13:18:29.863Z,101008.78
2022-10-05T13:21:03.686Z,100999.34
2022-10-05T13:23:44.317Z,100998.53
2022-10-05T13:26:12.882Z,100998.53
2022-10-05T13:28:47.170Z,101000.16
2022-10-05T13:31:23.733Z,100990.50
2022-10-05T13:34:18.809Z,100989.69
2022-10-05T13:37:22.753Z,100990.50
2022-10-05T13:40:28.002Z,100982.91
2022-10-05T13:43:04.079Z,100986.97
2022-10-05T13:46:11.231Z,100988.88
2022-10-05T13:48:57.948Z,100989.31
2022-10-05T13:51:46.319Z,100988.06
2022-10-05T13:54:19.651Z,100997.69
2022-10-05T13:56:23.586Z,100991.59
2022-10-05T13:58:40.596Z,100987.72
2022-10-05T14:00:59.767Z,100987.84
2022-10-05T14:03:02.276Z,100984.72
2022-10-05T14:05:29.626Z,100984.63
2022-10-05T14:08:16.544Z,100994.09
2022-10-05T14:10:35.267Z,100984.97
2022-10-05T14:12:55.882Z,100988.59
2022-10-05T14:15:41.928Z,100988.97
2022-10-05T14:18:27.574Z,100975.72
2022-10-05T14:21:03.154Z,100977.69
2022-10-05T14:23:27.404Z,100979.22
2022-10-05T14:25:54.148Z,100968.78
2022-10-05T14:28:20.740Z,100958.03
2022-10-05T14:30:41.537Z,100960.72
2022-10-05T14:33:06.345Z,100962.19
2022-10-05T14:35:53.824Z,100970.13
2022-10-05T14:38:50.336Z,100977.28
2022-10-05T14:41:19.238Z,100973.28
2022-10-05T14:44:13.658Z,100954.00
2022-10-05T14:46:36.558Z,100948.75
2022-10-05T14:49:22.620Z,100961.91
2022-10-05T14:51:45.035Z,100964.72
2022-10-05T14:55:05.418Z,100971.03
2022-10-05T14:57:42.431Z,100968.94
2022-10-05T15:00:18.758Z,100982.47
2022-10-05T15:02:52.746Z,100970.97
2022-10-05T15:05:31.594Z,100969.78
2022-10-05T15:07:57.331Z,100983.63
2022-10-05T15:10:56.639Z,100965.97
2022-10-05T15:13:25.820Z,100964.69
2022-10-05T15:16:03.334Z,100955.03
2022-10-05T15:18:53.697Z,100972.28
2022-10-05T15:21:09.139Z,100969.50
2022-10-05T15:23:47.416Z,100966.22
2022-10-05T15:26:21.871Z,100955.84
2022-10-05T15:28:56.369Z,100952.63
2022-10-05T15:31:12.322Z,100947.75
2022-10-05T15:33:37.443Z,100950.47
2022-10-05T15:36:00.750Z,100946.03
2022-10-05T15:38:14.030Z,100946.22
2022-10-05T15:40:32.968Z,100947.81
2022-10-05T15:42:45.313Z,100944.88
2022-10-05T15:45:20.361Z,100949.34
2022-10-05T15:47:49.926Z,100954.94
2022-10-05T15:50:26.212Z,100941.44
2022-10-05T15:52:44.334Z,100940.97
2022-10-05T15:55:22.185Z,100942.16
2022-10-05T15:58:11.596Z,100935.66
2022-10-05T16:00:15.638Z,100935.91
2022-10-05T16:02:26.801Z,100937.56
2022-10-05T16:04:39.792Z,100940.34
2022-10-05T16:07:12.145Z,100949.09
2022-10-05T16:09:44.299Z,100946.22
2022-10-05T16:12:04.732Z,100940.88
2022-10-05T16:14:37.432Z,100948.47
2022-10-05T16:17:05.039Z,100936.38
2022-10-05T16:20:04.222Z,100935.84
2022-10-05T16:22:59.438Z,100930.25
2022-10-05T16:25:51.126Z,100932.84
2022-10-05T16:28:41.616Z,100933.19
2022-10-05T16:31:18.781Z,100931.91
2022-10-05T16:34:23.287Z,100938.13
2022-10-05T16:36:59.216Z,100933.97
2022-10-05T16:39:57.256Z,100937.56
2022-10-05T16:42:42.167Z,100938.63
2022-10-05T16:45:45.012Z,100940.16
2022-10-05T16:48:26.713Z,100937.25
2022-10-05T16:50:58.172Z,100937.88
2022-10-05T16:53:43.336Z,100939.28
2022-10-05T16:56:07.760Z,100933.94
2022-10-05T16:59:39.808Z,100942.56
2022-10-05T17:02:36.614Z,100936.78
2022-10-05T17:05:24.152Z,100934.09
2022-10-05T17:08:13.679Z,100929.59
2022-10-05T17:10:46.015Z,100938.13
2022-10-05T17:13:21.444Z,100935.31
2022-10-05T17:15:53.634Z,100927.22
2022-10-05T17:18:11.312Z,100942.44
2022-10-05T17:20:42.984Z,100935.59
2022-10-05T17:23:13.485Z,100941.06
2022-10-05T17:25:29.075Z,100934.53
2022-10-05T17:27:56.719Z,100937.22
2022-10-05T17:30:29.448Z,100936.44
2022-10-05T17:32:39.663Z,100938.97
2022-10-05T17:35:00.559Z,100935.72
2022-10-05T17:37:27.318Z,100940.00
2022-10-05T17:39:52.705Z,100926.31
2022-10-05T17:41:54.720Z,100932.59
2022-10-05T17:44:16.327Z,100940.47
2022-10-05T17:46:38.252Z,100939.06
2022-10-05T17:48:49.363Z,100933.88
2022-10-05T17:51:10.047Z,100932.22
2022-10-05T17:53:41.710Z,100931.78
2022-10-05T17:55:45.071Z,100927.34
2022-10-05T17:57:47.100Z,100923.28
2022-10-05T17:59:57.198Z,100923.28
2022-10-05T18:02:26.808Z,100919.66
2022-10-05T18:04:32.514Z,100923.16
2022-10-05T18:06:36.528Z,100925.47
2022-10-05T18:08:38.637Z,100916.63
2022-10-05T18:11:35.436Z,100925.81
2022-10-05T18:14:23.219Z,100917.34
2022-10-05T18:17:03.184Z,100918.50
2022-10-05T18:19:25.474Z,100917.69
2022-10-05T18:22:26.788Z,100917.34
2022-10-05T18:25:49.860Z,100917.13
2022-10-05T18:28:55.558Z,100908.28
2022-10-05T18:31:45.528Z,100907.38
2022-10-05T18:34:35.244Z,100908.84
2022-10-05T18:38:08.940Z,100908.03
2022-10-05T18:41:04.310Z,100909.19
2022-10-05T18:43:42.776Z,100899.78
2022-10-05T18:46:22.052Z,100898.19
2022-10-05T18:49:22.758Z,100905.09
2022-10-05T18:52:13.904Z,100899.91
2022-10-05T18:54:57.785Z,100900.91
2022-10-05T18:57:19.928Z,100903.34
2022-10-05T18:59:39.964Z,100903.66
2022-10-05T19:02:47.387Z,100903.09
2022-10-05T19:05:48.926Z,100906.88
2022-10-05T19:08:28.580Z,100913.81
2022-10-05T19:10:56.568Z,100903.88
2022-10-05T19:13:31.038Z,100907.19
2022-10-05T19:16:22.634Z,100902.78
2022-10-05T19:19:18.032Z,100919.47
2022-10-05T19:22:19.494Z,100915.88
2022-10-05T19:25:15.055Z,100914.59
2022-10-05T19:27:53.123Z,100917.38
2022-10-05T19:30:23.128Z,100913.91
2022-10-05T19:32:57.169Z,100913.44
2022-10-05T19:35:48.588Z,100918.50
2022-10-05T19:38:43.829Z,100918.31
2022-10-05T19:41:37.448Z,100926.16
2022-10-05T19:44:35.403Z,100929.78
2022-10-05T19:47:04.332Z,100929.44
2022-10-05T19:49:09.380Z,100934.19
2022-10-05T19:51:29.782Z,100940.09
2022-10-05T19:53:37.126Z,100921.09
2022-10-05T19:55:41.763Z,100936.28
2022-10-05T19:57:55.205Z,100948.56
2022-10-05T19:59:58.075Z,100947.06
2022-10-05T20:02:00.324Z,100942.81
2022-10-05T20:04:02.792Z,100933.97
2022-10-05T20:06:07.310Z,100935.16
2022-10-05T20:08:20.035Z,100943.94
2022-10-05T20:10:29.449Z,100947.56
2022-10-05T20:13:01.877Z,100943.94
2022-10-05T20:15:34.800Z,100950.34
2022-10-05T20:17:55.070Z,100954.84
2022-10-05T20:20:22.825Z,100955.81
2022-10-05T20:22:37.388Z,100950.94
2022-10-05T20:24:50.870Z,100958.00
2022-10-05T20:27:12.599Z,100956.63
2022-10-05T20:29:17.239Z,100961.72
2022-10-05T20:31:20.261Z,100967.47
2022-10-05T20:33:26.808Z,100963.69
2022-10-05T20:35:30.751Z,100963.34
2022-10-05T20:37:33.146Z,100966.94
2022-10-05T20:39:35.149Z,100958.81
2022-10-05T20:41:37.202Z,100968.75
2022-10-05T20:43:39.451Z,100956.84
2022-10-05T20:45:43.430Z,100969.13
2022-10-05T20:47:47.432Z,100969.13
2022-10-05T20:49:49.435Z,100967.97
2022-10-05T20:52:11.238Z,100974.69
2022-10-05T20:54:33.658Z,100962.59
2022-10-05T20:56:56.186Z,100962.59
2022-10-05T20:59:18.678Z,100958.53
2022-10-05T21:01:47.995Z,100959.34
2022-10-05T21:04:10.622Z,100957.72
2022-10-05T21:06:29.543Z,100958.53
2022-10-05T21:08:54.299Z,100963.28
2022-10-05T21:11:14.828Z,100954.47
2022-10-05T21:13:38.667Z,100965.47
2022-10-05T21:16:01.120Z,100950.06
2022-10-05T21:18:23.489Z,100946.31
2022-10-05T21:20:47.903Z,100968.13
2022-10-05T21:23:12.275Z,100958.13
2022-10-05T21:25:34.711Z,100946.31
2022-10-05T21:27:57.168Z,100954.66
2022-10-05T21:30:19.584Z,100956.16
2022-10-05T21:32:44.371Z,100954.53
2022-10-05T21:35:07.700Z,100959.31
2022-10-05T21:37:30.046Z,100960.44
2022-10-05T21:39:52.378Z,100963.22
2022-10-05T21:42:14.702Z,100951.66
2022-10-05T21:44:37.116Z,100952.31
2022-10-05T21:47:00.265Z,100960.16
2022-10-05T21:49:22.594Z,100964.78
2022-10-05T21:51:44.958Z,100973.94
2022-10-05T21:54:13.401Z,100962.50
2022-10-05T21:56:37.940Z,100956.94
2022-10-05T21:59:01.269Z,100967.56
2022-10-05T22:01:23.589Z,100960.72
2022-10-05T22:03:57.701Z,100962.22
2022-10-05T22:06:20.119Z,100960.94
2022-10-05T22:08:42.537Z,100958.16
2022-10-05T22:11:14.140Z,100958.81
2022-10-05T22:13:45.561Z,100963.88
2022-10-05T22:16:07.963Z,100969.13
2022-10-05T22:18:30.686Z,100955.56
2022-10-05T22:20:53.377Z,100970.13
2022-10-05T22:23:15.853Z,100965.56
2022-10-05T22:25:38.934Z,100969.03
2022-10-05T22:28:02.019Z,100957.91
2022-10-05T22:30:24.534Z,100975.03
2022-10-05T22:32:46.908Z,100968.88
2022-10-05T22:35:11.792Z,100973.63
2022-10-05T22:37:37.893Z,100972.34
2022-10-05T22:40:00.326Z,100963.03
2022-10-05T22:42:22.766Z,100960.59
2022-10-05T22:44:45.149Z,100966.16
2022-10-05T22:47:07.585Z,100956.41
2022-10-05T22:49:29.952Z,100969.13
2022-10-05T22:51:52.452Z,100972.56
2022-10-05T22:54:15.284Z,100968.34
2022-10-05T22:56:37.629Z,100960.03
2022-10-05T22:58:59.953Z,100963.47
2022-10-05T23:01:22.452Z,100969.03
2022-10-05T23:03:45.041Z,100980.50
2022-10-05T23:06:10.630Z,100965.28
2022-10-05T23:08:33.734Z,100975.59
2022-10-05T23:11:03.553Z,100973.16
2022-10-05T23:13:25.911Z,100967.44
2022-10-05T23:15:48.251Z,100977.75
2022-10-05T23:18:12.128Z,100978.09
2022-10-05T23:20:34.449Z,100978.41
2022-10-05T23:22:56.853Z,100968.13
2022-10-05T23:25:19.411Z,100976.31
2022-10-05T23:27:42.339Z,100968.63
2022-10-05T23:30:06.945Z,100967.66
2022-10-05T23:32:29.347Z,100966.38
2022-10-05T23:34:51.732Z,100969.97
2022-10-05T23:37:14.126Z,100978.97
2022-10-05T23:39:36.487Z,100979.31
2022-10-05T23:42:00.284Z,100968.53
2022-10-05T23:44:23.139Z,100965.97
2022-10-05T23:46:45.529Z,100978.03
2022-10-05T23:49:08.776Z,100976.41
2022-10-05T23:51:31.169Z,100975.63
2022-10-05T23:53:53.562Z,100972.84
2022-10-05T23:56:15.966Z,100974.28
2022-10-05T23:58:38.672Z,100980.50
